Time;durP1;ratioP1;P1;durP2;ratioP2;P2;SDS_P1;SDS_P2;PMS_P1;PMS_P2;Temp;Humidity;BMP_temperature;BMP_pressure;BME280_temperature;BME280_humidity;BME280_pressure;Samples;Min_cycle;Max_cycle;Signal;HPM_P1;HPM_P2
2023/12/23 00:00:06;;;;;;;22.85;2.38;;;6.50;99.90;;;;;;5158434;27;20136;-85
2023/12/23 00:02:32;;;;;;;22.00;2.67;;;5.40;99.90;;;;;;5158599;27;20038;-85
2023/12/23 00:04:57;;;;;;;20.42;2.95;;;6.00;99.90;;;;;;5140732;27;20125;-86
2023/12/23 00:07:23;;;;;;;19.60;2.08;;;4.90;99.90;;;;;;5158819;27;20038;-86
2023/12/23 00:09:49;;;;;;;15.85;2.20;;;5.20;99.90;;;;;;5158304;27;20046;-85
2023/12/23 00:12:14;;;;;;;15.27;2.00;;;5.20;99.90;;;;;;5158460;27;20046;-85
2023/12/23 00:14:40;;;;;;;11.35;2.00;;;6.30;99.90;;;;;;5157472;27;20559;-85
2023/12/23 00:17:06;;;;;;;21.10;2.50;;;3.70;99.90;;;;;;5158393;27;20042;-85
2023/12/23 00:19:31;;;;;;;13.60;2.20;;;6.30;99.90;;;;;;5176591;27;20574;-85
2023/12/23 00:21:57;;;;;;;12.65;1.98;;;5.90;99.90;;;;;;5158338;27;20083;-85
2023/12/23 00:24:24;;;;;;;10.80;1.50;;;6.20;99.90;;;;;;5175805;27;20049;-85
2023/12/23 00:26:50;;;;;;;14.50;2.03;;;3.90;99.90;;;;;;5157398;27;20496;-85
2023/12/23 00:29:16;;;;;;;22.70;2.40;;;6.00;99.90;;;;;;5176360;27;20121;-85
2023/12/23 00:31:41;;;;;;;13.50;2.40;;;5.60;99.90;;;;;;5157825;27;20179;-85
2023/12/23 00:34:07;;;;;;;15.05;1.65;;;6.10;99.90;;;;;;5140316;27;20034;-85
2023/12/23 00:36:33;;;;;;;13.18;1.80;;;5.20;99.90;;;;;;5157508;27;20041;-85
2023/12/23 00:38:58;;;;;;;14.38;1.98;;;6.00;99.90;;;;;;5176130;27;20074;-84
2023/12/23 00:41:24;;;;;;;19.20;2.00;;;6.10;99.90;;;;;;5157769;27;20050;-85
2023/12/23 00:43:50;;;;;;;16.30;2.53;;;5.30;99.90;;;;;;5157546;27;20082;-85
2023/12/23 00:46:16;;;;;;;13.68;1.88;;;6.40;99.90;;;;;;5175959;27;20038;-85
2023/12/23 00:48:42;;;;;;;20.85;2.90;;;5.40;99.90;;;;;;5156876;27;20054;-85
2023/12/23 00:51:09;;;;;;;16.55;2.30;;;5.90;99.90;;;;;;5157682;27;20038;-85
2023/12/23 00:53:34;;;;;;;19.95;2.20;;;5.10;99.90;;;;;;5157441;27;20046;-85
2023/12/23 00:56:00;;;;;;;17.05;2.15;;;5.10;99.90;;;;;;5157336;27;20058;-86
2023/12/23 00:58:26;;;;;;;15.77;1.85;;;6.10;99.90;;;;;;5175172;27;20064;-85
2023/12/23 01:00:52;;;;;;;20.50;2.45;;;4.80;99.90;;;;;;5157337;27;20038;-85
2023/12/23 01:03:17;;;;;;;15.30;2.65;;;4.70;99.90;;;;;;5157326;27;20433;-85
2023/12/23 01:05:43;;;;;;;11.90;1.70;;;4.80;99.90;;;;;;5157224;27;20046;-85
2023/12/23 01:08:09;;;;;;;21.33;1.92;;;5.80;99.90;;;;;;5157200;27;20070;-86
2023/12/23 01:10:34;;;;;;;19.30;1.60;;;5.00;99.90;;;;;;5157317;27;20053;-85
2023/12/23 01:13:00;;;;;;;15.98;1.80;;;5.60;99.90;;;;;;5157051;27;20383;-85
2023/12/23 01:15:26;;;;;;;24.05;2.55;;;5.10;99.90;;;;;;5156902;27;20056;-86
2023/12/23 01:17:52;;;;;;;17.15;2.30;;;4.80;99.90;;;;;;5146799;27;20397;-85
2023/12/23 01:20:17;;;;;;;14.57;1.90;;;5.80;99.90;;;;;;5139453;27;20508;-85
2023/12/23 01:22:43;;;;;;;20.40;1.92;;;5.00;99.90;;;;;;5156883;27;20039;-85
2023/12/23 01:25:09;;;;;;;17.52;1.63;;;5.20;99.90;;;;;;5175680;27;20133;-85
2023/12/23 01:27:34;;;;;;;20.60;2.58;;;5.70;99.90;;;;;;5175288;27;20042;-85
2023/12/23 01:30:00;;;;;;;15.38;2.35;;;5.50;99.90;;;;;;5175409;27;20042;-85
2023/12/23 01:32:26;;;;;;;14.00;2.03;;;6.20;99.90;;;;;;5138630;27;20069;-85
2023/12/23 01:34:51;;;;;;;17.90;2.40;;;6.10;99.90;;;;;;5175252;27;20034;-85
2023/12/23 01:37:17;;;;;;;15.38;1.77;;;3.90;99.90;;;;;;5156052;27;20034;-86
2023/12/23 01:39:43;;;;;;;23.88;1.92;;;5.60;99.90;;;;;;5174177;27;20126;-86
2023/12/23 01:42:08;;;;;;;18.70;2.58;;;3.70;99.90;;;;;;5156983;27;20042;-86
2023/12/23 01:44:34;;;;;;;15.07;2.30;;;6.20;99.90;;;;;;5156572;27;20398;-85
2023/12/23 01:47:02;;;;;;;13.05;1.83;;;5.90;99.90;;;;;;5175344;27;20049;-85
2023/12/23 01:49:29;;;;;;;16.33;1.55;;;5.10;99.90;;;;;;5155902;27;20081;-86
2023/12/23 01:51:56;;;;;;;16.80;1.63;;;5.90;99.90;;;;;;5175303;27;20062;-86
2023/12/23 01:54:22;;;;;;;16.75;2.05;;;5.10;99.90;;;;;;5156525;27;20509;-86
2023/12/23 01:56:50;;;;;;;15.45;1.60;;;4.80;99.90;;;;;;5156408;27;20039;-85
2023/12/23 01:59:17;;;;;;;23.05;2.22;;;5.30;99.90;;;;;;5174547;27;20083;-86
2023/12/23 02:01:43;;;;;;;19.02;2.30;;;4.40;99.90;;;;;;5156335;27;20054;-85
2023/12/23 02:04:09;;;;;;;20.75;1.95;;;5.60;99.90;;;;;;5156403;27;20387;-86
2023/12/23 02:06:35;;;;;;;18.25;2.13;;;6.30;99.90;;;;;;5156784;27;20386;-85
2023/12/23 02:09:02;;;;;;;18.25;2.75;;;5.60;99.90;;;;;;5156589;27;20030;-85
2023/12/23 02:11:50;;;;;;;13.18;1.73;;;4.20;99.90;;;;;;5155865;27;20046;-85
2023/12/23 02:14:28;;;;;;;16.50;1.40;;;5.20;99.90;;;;;;5175279;27;20046;-85
2023/12/23 02:16:54;;;;;;;12.45;1.52;;;5.30;99.90;;;;;;5156139;27;20049;-86
2023/12/23 02:19:20;;;;;;;13.85;1.83;;;5.70;99.90;;;;;;5174478;27;20058;-86
2023/12/23 02:21:46;;;;;;;16.83;2.30;;;5.90;99.90;;;;;;5138414;27;20146;-86
2023/12/23 02:24:12;;;;;;;12.82;1.85;;;6.30;99.90;;;;;;5155776;27;20050;-85
2023/12/23 02:26:40;;;;;;;9.25;1.35;;;5.30;99.90;;;;;;5174661;27;20038;-85
2023/12/23 02:29:07;;;;;;;12.77;1.60;;;5.40;99.90;;;;;;5175092;27;20050;-85
2023/12/23 02:31:34;;;;;;;11.93;1.50;;;5.80;99.90;;;;;;5155736;27;20034;-85
2023/12/23 02:34:00;;;;;;;14.27;1.40;;;6.30;99.90;;;;;;5173740;27;20054;-85
2023/12/23 02:36:26;;;;;;;12.77;1.50;;;6.40;99.90;;;;;;5155930;27;20042;-85
2023/12/23 02:38:52;;;;;;;11.63;1.20;;;6.20;99.90;;;;;;5155612;27;20050;-85
2023/12/23 02:41:18;;;;;;;12.55;1.20;;;5.90;99.90;;;;;;5155476;27;20050;-84
2023/12/23 02:43:44;;;;;;;9.57;1.17;;;5.40;99.90;;;;;;5173358;27;20041;-85
2023/12/23 02:46:09;;;;;;;10.15;1.02;;;5.60;99.90;;;;;;5174408;27;20067;-85
2023/12/23 02:48:35;;;;;;;7.10;1.10;;;5.90;99.90;;;;;;5174404;27;20046;-85
2023/12/23 02:51:01;;;;;;;8.85;1.10;;;5.70;99.90;;;;;;5157315;27;20120;-85
2023/12/23 02:53:26;;;;;;;6.40;0.93;;;6.30;99.90;;;;;;5142424;27;20061;-85
2023/12/23 02:55:52;;;;;;;7.35;1.00;;;5.30;99.90;;;;;;5160033;27;20050;-86
2023/12/23 02:58:18;;;;;;;9.82;1.08;;;6.30;99.90;;;;;;5159920;27;20482;-85
2023/12/23 03:00:43;;;;;;;8.63;0.95;;;5.80;99.90;;;;;;5159210;27;20074;-85
2023/12/23 03:03:09;;;;;;;7.35;0.80;;;5.70;99.90;;;;;;5141828;27;20045;-85
2023/12/23 03:05:35;;;;;;;4.85;0.80;;;5.90;99.90;;;;;;5142497;27;20073;-84
2023/12/23 03:08:00;;;;;;;12.20;1.23;;;5.70;99.90;;;;;;5177738;27;20038;-86
2023/12/23 03:10:26;;;;;;;12.25;1.05;;;5.60;99.90;;;;;;5159092;27;20431;-84
2023/12/23 03:12:52;;;;;;;8.30;1.20;;;4.60;99.90;;;;;;5158684;27;20042;-85
2023/12/23 03:15:17;;;;;;;12.23;1.00;;;5.80;99.90;;;;;;5177576;27;20383;-85
2023/12/23 03:17:43;;;;;;;8.00;1.13;;;5.10;99.90;;;;;;5177804;27;20090;-84
2023/12/23 03:20:09;;;;;;;7.38;1.23;;;5.40;99.90;;;;;;5141592;27;20137;-84
2023/12/23 03:22:35;;;;;;;12.55;1.08;;;5.10;99.90;;;;;;5158887;27;20045;-84
2023/12/23 03:25:01;;;;;;;16.30;2.45;;;5.70;99.90;;;;;;5158645;27;20038;-84
2023/12/23 03:27:27;;;;;;;8.90;1.35;;;5.40;99.90;;;;;;5158687;27;20130;-85
2023/12/23 03:29:52;;;;;;;12.25;1.52;;;5.10;99.90;;;;;;5159001;27;20077;-85
2023/12/23 03:32:18;;;;;;;12.80;1.35;;;6.20;99.90;;;;;;5159088;27;20402;-84
2023/12/23 03:34:44;;;;;;;13.13;1.38;;;5.70;99.90;;;;;;5177397;27;20085;-85
2023/12/23 03:37:09;;;;;;;15.95;1.83;;;6.10;99.90;;;;;;5159461;27;20042;-84
2023/12/23 03:39:35;;;;;;;11.23;1.45;;;6.00;99.90;;;;;;5177528;27;20038;-85
2023/12/23 03:42:01;;;;;;;11.68;1.40;;;6.10;99.90;;;;;;5158163;27;20041;-85
2023/12/23 03:44:26;;;;;;;8.10;1.20;;;5.10;99.90;;;;;;5176868;27;20489;-85
2023/12/23 03:46:52;;;;;;;14.52;1.50;;;6.10;99.90;;;;;;5158333;27;20048;-85
2023/12/23 03:49:18;;;;;;;8.32;1.13;;;4.70;99.90;;;;;;5177102;27;20046;-84
2023/12/23 03:51:43;;;;;;;9.25;1.10;;;4.00;99.90;;;;;;5141284;27;20034;-84
2023/12/23 03:54:09;;;;;;;14.43;1.40;;;6.10;99.90;;;;;;5158862;27;20096;-84
2023/12/23 03:56:35;;;;;;;9.98;1.45;;;5.50;99.90;;;;;;5140335;27;20067;-84
2023/12/23 03:59:00;;;;;;;11.95;1.52;;;5.20;99.90;;;;;;5141570;27;20060;-84
2023/12/23 04:01:26;;;;;;;17.42;1.75;;;5.00;99.90;;;;;;5140588;27;20095;-84
2023/12/23 04:03:52;;;;;;;14.00;2.22;;;5.00;99.90;;;;;;5176958;27;20042;-84
2023/12/23 04:06:18;;;;;;;14.25;1.38;;;6.10;99.90;;;;;;5157991;27;20034;-84
2023/12/23 04:08:43;;;;;;;13.40;1.42;;;6.20;99.90;;;;;;5158145;27;20038;-84
2023/12/23 04:11:09;;;;;;;10.40;1.45;;;6.10;99.90;;;;;;5157808;27;20077;-84
2023/12/23 04:13:36;;;;;;;14.85;1.83;;;4.90;99.90;;;;;;5176985;27;20035;-84
2023/12/23 04:16:04;;;;;;;7.05;0.70;;;4.90;99.90;;;;;;5141252;27;20164;-85
2023/12/23 04:18:31;;;;;;;10.65;0.70;;;4.90;99.90;;;;;;5176241;27;20045;-84
2023/12/23 04:20:57;;;;;;;7.53;0.80;;;5.90;99.90;;;;;;5140563;27;20107;-84
2023/12/23 04:23:23;;;;;;;10.63;1.13;;;5.70;99.90;;;;;;5176409;27;20069;-84
2023/12/23 04:25:49;;;;;;;12.02;1.20;;;5.40;99.90;;;;;;5157333;27;20089;-84
2023/12/23 04:28:15;;;;;;;12.65;1.20;;;5.20;99.90;;;;;;5157677;27;20067;-85
2023/12/23 04:30:41;;;;;;;6.78;1.20;;;6.00;99.90;;;;;;5176356;27;20114;-84
2023/12/23 04:33:07;;;;;;;12.63;1.20;;;5.50;99.90;;;;;;5158603;27;20038;-86
2023/12/23 04:35:33;;;;;;;9.65;0.88;;;5.60;99.90;;;;;;5176359;27;20476;-84
2023/12/23 04:37:59;;;;;;;13.00;0.95;;;5.30;99.90;;;;;;5176358;27;20083;-84
2023/12/23 04:40:25;;;;;;;8.20;0.80;;;4.30;99.90;;;;;;5157307;27;20410;-84
2023/12/23 04:42:50;;;;;;;9.68;0.90;;;5.80;99.90;;;;;;5176505;27;20443;-84
2023/12/23 04:45:16;;;;;;;4.68;0.60;;;5.50;99.90;;;;;;5157864;27;20049;-84
2023/12/23 04:47:41;;;;;;;6.82;1.05;;;5.60;99.90;;;;;;5157072;27;20405;-84
2023/12/23 04:50:07;;;;;;;6.80;0.77;;;4.60;99.90;;;;;;5157024;27;20391;-84
2023/12/23 04:52:33;;;;;;;7.13;0.70;;;4.80;99.90;;;;;;5175681;27;20069;-83
2023/12/23 04:54:59;;;;;;;4.82;0.55;;;4.20;99.90;;;;;;5175068;27;20049;-83
2023/12/23 04:57:27;;;;;;;6.97;0.55;;;4.40;99.90;;;;;;5156121;27;20102;-84
2023/12/23 04:59:53;;;;;;;2.05;0.40;;;6.00;99.90;;;;;;5157213;27;20038;-84
2023/12/23 05:02:19;;;;;;;6.55;0.60;;;5.40;99.90;;;;;;5176038;27;20049;-84
2023/12/23 05:04:46;;;;;;;4.47;0.40;;;4.20;99.90;;;;;;5176079;27;20390;-84
2023/12/23 05:07:12;;;;;;;3.15;0.50;;;5.30;99.90;;;;;;5157081;27;20045;-84
2023/12/23 05:09:38;;;;;;;3.95;0.50;;;5.60;99.90;;;;;;5175204;27;20030;-84
2023/12/23 05:12:04;;;;;;;3.92;0.75;;;5.20;99.90;;;;;;5156853;27;20064;-84
2023/12/23 05:14:29;;;;;;;2.40;0.35;;;4.70;99.90;;;;;;5174699;27;20038;-84
2023/12/23 05:16:55;;;;;;;5.45;0.75;;;5.00;99.90;;;;;;5156684;27;20523;-84
2023/12/23 05:19:21;;;;;;;2.35;0.47;;;5.80;99.90;;;;;;5175001;27;20042;-83
2023/12/23 05:21:47;;;;;;;4.50;0.35;;;4.70;99.90;;;;;;5153176;27;20059;-84
2023/12/23 05:24:13;;;;;;;3.13;0.40;;;5.70;99.90;;;;;;5152817;27;20046;-85
2023/12/23 05:26:39;;;;;;;3.60;0.40;;;3.80;99.90;;;;;;5152907;27;20134;-83
2023/12/23 05:29:05;;;;;;;1.50;0.28;;;5.10;99.90;;;;;;5154461;27;20049;-84
2023/12/23 05:31:30;;;;;;;3.55;0.30;;;4.70;99.90;;;;;;5135706;27;20054;-84
2023/12/23 05:33:56;;;;;;;3.20;0.38;;;5.70;99.90;;;;;;5154182;27;20502;-84
2023/12/23 05:36:22;;;;;;;2.72;0.30;;;5.30;99.90;;;;;;5154573;27;20403;-84
2023/12/23 05:38:48;;;;;;;2.00;0.30;;;5.60;99.90;;;;;;5154617;27;20053;-83
2023/12/23 05:41:14;;;;;;;3.75;0.32;;;5.10;99.90;;;;;;5135169;27;20038;-84
2023/12/23 05:43:39;;;;;;;2.88;0.40;;;4.60;99.90;;;;;;5153588;27;20034;-84
2023/12/23 05:46:05;;;;;;;4.75;0.30;;;5.70;99.90;;;;;;5153123;27;20046;-84
2023/12/23 05:48:31;;;;;;;1.80;0.30;;;3.90;99.90;;;;;;5154153;27;20107;-84
2023/12/23 05:50:56;;;;;;;2.33;0.22;;;4.30;99.90;;;;;;5118559;27;20053;-84
2023/12/23 05:53:22;;;;;;;1.52;0.38;;;4.50;99.90;;;;;;5152611;27;20043;-84
2023/12/23 05:55:48;;;;;;;2.33;0.50;;;5.10;99.90;;;;;;5152458;27;20047;-84
2023/12/23 05:58:14;;;;;;;1.02;0.30;;;5.30;99.90;;;;;;5134725;27;20062;-84
2023/12/23 06:00:40;;;;;;;2.85;0.30;;;4.80;99.90;;;;;;5152435;27;20042;-85
2023/12/23 06:03:05;;;;;;;6.13;0.45;;;4.70;99.90;;;;;;5135013;27;20125;-84
2023/12/23 06:05:31;;;;;;;2.25;0.30;;;4.50;99.90;;;;;;5154164;27;20038;-84
2023/12/23 06:07:58;;;;;;;1.48;0.28;;;4.80;99.90;;;;;;5154034;27;20038;-84
2023/12/23 06:10:24;;;;;;;1.20;0.30;;;4.50;99.90;;;;;;5153760;27;20444;-84
2023/12/23 06:12:50;;;;;;;4.95;0.75;;;5.00;99.90;;;;;;5153662;27;20047;-84
2023/12/23 06:15:16;;;;;;;1.63;0.40;;;5.10;99.90;;;;;;5152223;27;20038;-84
2023/12/23 06:17:41;;;;;;;2.47;0.40;;;4.30;99.90;;;;;;5153184;27;20406;-85
2023/12/23 06:20:08;;;;;;;3.28;0.40;;;4.80;99.90;;;;;;5157019;27;20064;-84
2023/12/23 06:22:33;;;;;;;3.15;0.40;;;4.50;99.90;;;;;;5155760;27;20543;-84
2023/12/23 06:24:59;;;;;;;2.45;0.60;;;4.90;99.90;;;;;;5156708;27;20046;-84
2023/12/23 06:27:25;;;;;;;4.32;0.40;;;3.90;99.90;;;;;;5159793;27;20034;-83
2023/12/23 06:29:50;;;;;;;3.90;0.60;;;5.10;99.90;;;;;;5160411;27;20387;-84
2023/12/23 06:32:16;;;;;;;3.45;0.40;;;5.10;99.90;;;;;;5160337;27;20046;-83
2023/12/23 06:34:41;;;;;;;1.23;0.40;;;5.20;99.90;;;;;;5159900;27;20034;-84
2023/12/23 06:37:07;;;;;;;2.28;0.60;;;4.50;99.90;;;;;;5159802;27;20043;-83
2023/12/23 06:39:33;;;;;;;0.95;0.50;;;4.40;99.90;;;;;;5160214;27;20101;-84
2023/12/23 06:41:58;;;;;;;1.73;0.35;;;5.60;99.90;;;;;;5160068;27;20049;-83
2023/12/23 06:44:24;;;;;;;3.15;0.60;;;5.00;99.90;;;;;;5160325;27;20038;-84
2023/12/23 06:46:51;;;;;;;2.08;0.40;;;4.50;99.90;;;;;;5178057;27;20045;-84
2023/12/23 06:49:17;;;;;;;3.13;0.40;;;5.40;99.90;;;;;;5178441;27;20103;-85
2023/12/23 06:51:43;;;;;;;4.18;0.40;;;4.50;99.90;;;;;;5142578;27;20050;-84
2023/12/23 06:54:08;;;;;;;2.97;0.40;;;4.60;99.90;;;;;;5159318;27;20038;-87
2023/12/23 06:56:34;;;;;;;4.28;0.40;;;4.50;99.90;;;;;;5159261;27;20045;-84
2023/12/23 06:59:01;;;;;;;4.20;0.77;;;5.00;99.90;;;;;;5178206;27;20046;-84
2023/12/23 07:01:37;;;;;;;6.13;0.73;;;4.50;99.90;;;;;;5178429;27;20402;-84
2023/12/23 07:04:02;;;;;;;5.03;0.40;;;3.50;99.90;;;;;;5159079;27;20470;-85
2023/12/23 07:06:28;;;;;;;2.28;0.30;;;4.50;99.90;;;;;;5176834;27;20048;-84
2023/12/23 07:08:54;;;;;;;6.70;0.68;;;4.90;99.90;;;;;;5158879;27;20073;-85
2023/12/23 07:11:19;;;;;;;2.15;0.25;;;4.10;99.90;;;;;;5141273;27;20177;-85
2023/12/23 07:13:45;;;;;;;1.50;0.30;;;5.60;99.90;;;;;;5159610;27;20073;-85
2023/12/23 07:16:11;;;;;;;2.47;0.40;;;5.30;99.90;;;;;;5178309;27;20035;-84
2023/12/23 07:18:36;;;;;;;0.40;0.20;;;4.50;99.90;;;;;;5158851;27;20105;-85
2023/12/23 07:21:02;;;;;;;0.95;0.32;;;4.90;99.90;;;;;;5159050;27;20050;-86
2023/12/23 07:23:28;;;;;;;1.77;0.30;;;4.50;99.90;;;;;;5159610;27;20130;-86
2023/12/23 07:25:53;;;;;;;1.50;0.40;;;5.50;99.90;;;;;;5177782;27;20046;-87
2023/12/23 07:28:19;;;;;;;0.63;0.28;;;5.20;99.90;;;;;;5177398;27;20034;-87
2023/12/23 07:30:45;;;;;;;0.88;0.47;;;4.60;99.90;;;;;;5159514;27;20042;-86
2023/12/23 07:33:14;;;;;;;4.88;0.32;;;3.90;99.90;;;;;;5159118;27;20039;-87
2023/12/23 07:35:39;;;;;;;0.98;0.22;;;4.40;99.90;;;;;;5158718;27;20060;-87
2023/12/23 07:38:08;;;;;;;0.30;0.20;;;4.40;99.90;;;;;;5158422;27;20038;-87
2023/12/23 07:40:35;;;;;;;3.45;0.30;;;5.40;99.90;;;;;;5158236;27;20042;-86
2023/12/23 07:43:01;;;;;;;1.35;0.20;;;5.50;99.90;;;;;;5158948;27;20490;-87
2023/12/23 07:45:27;;;;;;;1.02;0.30;;;4.60;99.90;;;;;;5158853;27;20034;-86
2023/12/23 07:47:53;;;;;;;0.75;0.20;;;4.40;99.90;;;;;;5158218;27;20095;-87
2023/12/23 07:50:19;;;;;;;1.60;0.30;;;4.40;99.90;;;;;;5177091;27;20038;-87
2023/12/23 07:52:44;;;;;;;1.88;0.30;;;3.60;99.90;;;;;;5177133;27;20069;-86
2023/12/23 07:55:10;;;;;;;1.75;0.50;;;5.50;99.90;;;;;;5158927;27;20042;-86
2023/12/23 07:57:36;;;;;;;1.63;0.30;;;4.80;99.90;;;;;;5141436;27;20085;-86
2023/12/23 08:00:02;;;;;;;0.28;0.20;;;5.00;99.90;;;;;;5176879;27;20113;-87
2023/12/23 08:02:28;;;;;;;0.80;0.20;;;4.40;99.90;;;;;;5157240;27;20498;-86
2023/12/23 08:04:54;;;;;;;0.90;0.30;;;5.50;99.90;;;;;;5158646;27;20074;-86
2023/12/23 08:07:20;;;;;;;0.30;0.20;;;4.40;99.90;;;;;;5158421;27;20398;-86
2023/12/23 08:09:46;;;;;;;1.15;0.35;;;5.20;99.90;;;;;;5176884;27;20039;-86
2023/12/23 08:12:12;;;;;;;0.75;0.30;;;5.60;99.90;;;;;;5176536;27;20106;-87
2023/12/23 08:14:37;;;;;;;0.93;0.20;;;4.50;99.90;;;;;;5140936;27;20145;-87
2023/12/23 08:17:03;;;;;;;0.32;0.28;;;5.50;99.90;;;;;;5157760;27;20056;-86
2023/12/23 08:19:29;;;;;;;0.40;0.30;;;4.40;99.90;;;;;;5157598;27;20046;-87
2023/12/23 08:21:54;;;;;;;2.80;0.50;;;4.20;99.90;;;;;;5157557;27;20046;-88
2023/12/23 08:24:21;;;;;;;1.83;0.40;;;5.10;99.90;;;;;;5158350;27;20038;-87
2023/12/23 08:26:46;;;;;;;2.60;0.50;;;4.30;99.90;;;;;;5158464;27;20132;-86
2023/12/23 08:29:12;;;;;;;1.17;0.50;;;3.70;99.90;;;;;;5140850;27;20066;-86
2023/12/23 08:31:45;;;;;;;1.58;0.40;;;4.50;99.90;;;;;;5157689;27;20034;-86
2023/12/23 08:34:10;;;;;;;2.72;0.60;;;4.90;99.90;;;;;;5139461;27;20042;-86
2023/12/23 08:36:36;;;;;;;2.28;0.55;;;5.30;99.90;;;;;;5157611;27;20094;-87
2023/12/23 08:39:02;;;;;;;1.88;0.57;;;5.80;99.90;;;;;;5140259;27;20485;-87
2023/12/23 08:41:28;;;;;;;2.00;1.30;;;4.60;99.90;;;;;;5176481;27;20498;-87
2023/12/23 08:43:53;;;;;;;1.92;0.80;;;4.70;99.90;;;;;;5156945;27;20042;-85
2023/12/23 08:46:19;;;;;;;2.17;0.80;;;4.60;99.90;;;;;;5157012;27;20414;-86
2023/12/23 08:48:45;;;;;;;2.53;1.50;;;4.30;99.90;;;;;;5175802;27;20034;-86
2023/12/23 08:51:10;;;;;;;1.25;0.70;;;4.60;99.90;;;;;;5157308;27;20606;-86
2023/12/23 08:53:36;;;;;;;1.40;0.73;;;5.30;99.90;;;;;;5158008;27;20044;-87
2023/12/23 08:56:02;;;;;;;3.08;0.57;;;5.50;99.90;;;;;;5175978;27;20041;-87
2023/12/23 08:58:30;;;;;;;1.38;0.50;;;4.60;99.90;;;;;;5157576;27;20367;-86
2023/12/23 09:00:57;;;;;;;2.30;0.60;;;5.50;99.90;;;;;;5156959;27;20035;-86
2023/12/23 09:03:22;;;;;;;1.30;0.50;;;5.10;99.90;;;;;;5175889;27;20046;-87
2023/12/23 09:05:48;;;;;;;2.60;0.45;;;4.70;99.90;;;;;;5156611;27;20042;-85
2023/12/23 09:08:14;;;;;;;3.60;0.60;;;5.40;99.90;;;;;;5157359;27;20078;-86
2023/12/23 09:10:40;;;;;;;1.05;0.57;;;5.20;99.90;;;;;;5157472;27;20058;-88
2023/12/23 09:13:06;;;;;;;3.10;0.50;;;4.70;99.90;;;;;;5140163;27;20398;-87
2023/12/23 09:15:32;;;;;;;1.67;0.47;;;4.70;99.90;;;;;;5138906;27;20079;-86
2023/12/23 09:17:58;;;;;;;1.60;0.60;;;5.90;99.90;;;;;;5164494;27;20038;-86
2023/12/23 09:20:23;;;;;;;2.17;0.70;;;4.70;99.90;;;;;;5174702;27;20046;-84
2023/12/23 09:22:49;;;;;;;1.10;0.60;;;6.00;99.90;;;;;;5175477;27;20063;-86
2023/12/23 09:25:15;;;;;;;1.42;0.52;;;3.90;99.90;;;;;;5156666;27;20454;-83
2023/12/23 09:27:41;;;;;;;2.65;0.73;;;3.40;99.90;;;;;;5174992;27;20045;-84
2023/12/23 09:30:22;;;;;;;0.60;0.40;;;5.40;99.90;;;;;;5156868;27;20040;-95
2023/12/23 09:32:47;;;;;;;3.33;0.63;;;5.60;99.90;;;;;;5139298;27;20091;-83
2023/12/23 09:35:13;;;;;;;1.27;0.68;;;4.80;99.90;;;;;;5175407;27;20512;-83
2023/12/23 09:37:39;;;;;;;4.07;0.60;;;4.80;99.90;;;;;;5175730;27;20394;-84
2023/12/23 09:40:05;;;;;;;2.75;0.60;;;5.80;99.90;;;;;;5155779;27;20060;-83
2023/12/23 09:42:31;;;;;;;0.45;0.32;;;4.90;99.90;;;;;;5175106;27;20494;-84
2023/12/23 09:44:57;;;;;;;2.55;0.60;;;4.40;99.90;;;;;;5156356;27;20068;-85
2023/12/23 09:47:24;;;;;;;0.90;0.43;;;5.40;99.90;;;;;;5154926;27;20042;-83
2023/12/23 09:49:50;;;;;;;0.50;0.45;;;5.60;99.90;;;;;;5174812;27;20042;-83
2023/12/23 09:52:16;;;;;;;1.48;0.50;;;5.90;99.90;;;;;;5156492;27;20379;-83
2023/12/23 09:54:47;;;;;;;0.55;0.47;;;5.80;99.90;;;;;;5156687;27;20126;-83
2023/12/23 09:57:14;;;;;;;0.63;0.40;;;5.00;99.90;;;;;;5139506;27;20424;-84
2023/12/23 09:59:40;;;;;;;0.63;0.50;;;5.00;99.90;;;;;;5155973;27;20034;-84
2023/12/23 10:02:06;;;;;;;0.88;0.45;;;4.40;99.90;;;;;;5156562;27;20091;-84
2023/12/23 10:04:33;;;;;;;1.38;0.45;;;6.40;99.90;;;;;;5156590;27;20049;-84
2023/12/23 10:06:58;;;;;;;1.58;0.50;;;5.60;99.90;;;;;;5156034;27;20046;-83
2023/12/23 10:09:27;;;;;;;3.42;0.50;;;5.30;99.90;;;;;;5156519;27;20166;-84
2023/12/23 10:11:52;;;;;;;0.75;0.40;;;5.90;99.90;;;;;;5156378;27;20046;-84
2023/12/23 10:14:20;;;;;;;2.05;0.30;;;5.10;99.90;;;;;;5175030;27;20038;-83
2023/12/23 10:16:46;;;;;;;0.80;0.40;;;6.00;99.90;;;;;;5139118;27;20042;-84
2023/12/23 10:19:12;;;;;;;1.42;0.35;;;5.20;99.90;;;;;;5156283;27;20030;-83
2023/12/23 10:21:40;;;;;;;2.00;0.30;;;6.20;99.90;;;;;;5156190;27;20524;-84
2023/12/23 10:24:06;;;;;;;0.35;0.30;;;6.10;99.90;;;;;;5156345;27;20043;-84
2023/12/23 10:26:33;;;;;;;0.50;0.40;;;5.20;99.90;;;;;;5174980;27;20399;-84
2023/12/23 10:29:03;;;;;;;0.70;0.50;;;5.70;99.90;;;;;;5156757;27;20034;-84
2023/12/23 10:31:31;;;;;;;0.63;0.40;;;5.20;99.90;;;;;;5138982;27;20513;-85
2023/12/23 10:34:02;;;;;;;0.80;0.40;;;5.30;99.90;;;;;;5139170;27;20435;-84
2023/12/23 10:36:28;;;;;;;1.50;0.40;;;5.40;99.90;;;;;;5156490;27;20046;-84
2023/12/23 10:39:00;;;;;;;2.38;0.60;;;6.20;99.90;;;;;;5156069;27;20087;-83
2023/12/23 10:41:48;;;;;;;0.52;0.30;;;5.10;99.90;;;;;;5156071;27;20163;-84
2023/12/23 10:44:16;;;;;;;1.35;0.30;;;5.40;99.90;;;;;;5156342;27;20050;-85
2023/12/23 10:46:44;;;;;;;1.50;0.40;;;6.50;99.90;;;;;;5174880;27;20052;-85
2023/12/23 10:49:11;;;;;;;0.28;0.28;;;5.60;99.90;;;;;;5174602;27;20050;-85
2023/12/23 10:51:38;;;;;;;1.15;0.50;;;5.60;99.90;;;;;;5156544;27;20042;-84
2023/12/23 10:54:07;;;;;;;0.50;0.35;;;5.40;99.90;;;;;;5156033;27;20042;-85
2023/12/23 10:56:33;;;;;;;0.45;0.30;;;5.40;99.90;;;;;;5174228;27;20038;-85
2023/12/23 10:59:01;;;;;;;0.68;0.30;;;6.40;99.90;;;;;;5174265;27;20052;-85
2023/12/23 11:01:31;;;;;;;0.57;0.20;;;6.40;99.90;;;;;;5155606;27;20046;-86
2023/12/23 11:04:01;;;;;;;0.40;0.40;;;5.50;99.90;;;;;;5139147;27;20038;-85
2023/12/23 11:06:34;;;;;;;0.47;0.30;;;4.90;99.90;;;;;;5174556;27;20098;-84
2023/12/23 11:09:01;;;;;;;0.25;0.25;;;5.60;99.90;;;;;;5155287;27;20124;-84
2023/12/23 11:11:29;;;;;;;2.65;0.30;;;6.30;99.90;;;;;;5175030;27;20038;-84
2023/12/23 11:13:55;;;;;;;0.35;0.35;;;5.50;99.90;;;;;;5160173;27;20117;-85
2023/12/23 11:16:21;;;;;;;0.70;0.30;;;6.40;99.90;;;;;;5159487;27;20389;-84
2023/12/23 11:18:51;;;;;;;1.20;0.30;;;6.30;99.90;;;;;;5141940;27;20042;-84
2023/12/23 11:21:17;;;;;;;0.30;0.28;;;5.60;99.90;;;;;;5159024;27;20057;-85
2023/12/23 11:23:43;;;;;;;1.08;0.30;;;5.60;99.90;;;;;;5159566;27;20050;-85
2023/12/23 11:26:41;;;;;;;1.65;0.30;;;6.60;99.90;;;;;;5159293;27;20056;-85
2023/12/23 11:29:08;;;;;;;1.08;0.30;;;5.70;99.90;;;;;;5177764;27;20046;-85
2023/12/23 11:31:33;;;;;;;1.17;0.30;;;6.10;99.90;;;;;;5159250;27;20065;-86
2023/12/23 11:34:00;;;;;;;0.63;0.32;;;4.20;99.90;;;;;;5159311;27;20094;-85
2023/12/23 11:36:25;;;;;;;0.40;0.40;;;6.30;99.90;;;;;;5177607;27;20049;-85
2023/12/23 11:38:52;;;;;;;0.40;0.30;;;6.70;99.90;;;;;;5158350;27;20046;-84
2023/12/23 11:41:19;;;;;;;0.75;0.32;;;6.00;99.90;;;;;;5177966;27;20043;-86
2023/12/23 11:43:45;;;;;;;0.50;0.40;;;6.80;99.90;;;;;;5159496;27;20046;-84
2023/12/23 11:46:17;;;;;;;0.47;0.32;;;5.70;99.90;;;;;;5158500;27;20038;-84
2023/12/23 11:48:43;;;;;;;0.98;0.40;;;5.70;99.90;;;;;;5149579;27;20043;-84
2023/12/23 11:51:12;;;;;;;0.82;0.57;;;6.70;99.90;;;;;;5159317;27;20065;-85
2023/12/23 11:53:40;;;;;;;1.13;0.60;;;6.40;99.90;;;;;;5177528;27;20035;-85
2023/12/23 11:56:06;;;;;;;2.90;1.00;;;5.20;99.90;;;;;;5158977;27;20133;-83
2023/12/23 11:58:32;;;;;;;1.70;0.70;;;5.80;99.90;;;;;;5141203;27;20054;-86
2023/12/23 12:00:59;;;;;;;0.80;0.60;;;6.00;99.90;;;;;;5177326;27;20090;-84
2023/12/23 12:03:24;;;;;;;2.65;0.70;;;6.40;99.90;;;;;;5158959;27;20484;-85
2023/12/23 12:05:58;;;;;;;0.73;0.50;;;6.10;99.90;;;;;;5141126;27;20042;-84
2023/12/23 12:08:25;;;;;;;0.38;0.38;;;6.40;99.90;;;;;;5176462;27;20438;-84
2023/12/23 12:10:51;;;;;;;0.88;0.40;;;6.90;99.90;;;;;;5158925;27;20034;-84
2023/12/23 12:13:17;;;;;;;0.52;0.50;;;6.20;99.90;;;;;;5141143;27;20038;-84
2023/12/23 12:15:42;;;;;;;0.65;0.43;;;6.30;99.90;;;;;;5158507;27;20042;-84
2023/12/23 12:18:11;;;;;;;0.60;0.43;;;5.90;99.90;;;;;;5176638;27;20045;-85
2023/12/23 12:20:36;;;;;;;0.40;0.40;;;6.80;99.90;;;;;;5157725;27;21165;-84
2023/12/23 12:23:02;;;;;;;0.50;0.50;;;6.00;99.90;;;;;;5157408;27;20046;-84
2023/12/23 12:25:28;;;;;;;0.57;0.40;;;6.00;99.90;;;;;;5158369;27;20065;-84
2023/12/23 12:27:58;;;;;;;1.10;0.50;;;6.20;99.90;;;;;;5158540;27;20087;-85
2023/12/23 12:30:23;;;;;;;1.15;0.50;;;5.90;99.90;;;;;;5140439;27;20050;-85
2023/12/23 12:32:51;;;;;;;1.25;0.45;;;6.80;99.90;;;;;;5140794;27;20056;-84
2023/12/23 12:35:18;;;;;;;0.55;0.45;;;6.70;99.90;;;;;;5157934;27;20045;-84
2023/12/23 12:37:43;;;;;;;0.43;0.40;;;6.00;99.90;;;;;;5176433;27;20043;-84
2023/12/23 12:40:11;;;;;;;0.70;0.50;;;5.90;99.90;;;;;;5140477;27;20057;-84
2023/12/23 12:42:37;;;;;;;0.80;0.50;;;5.90;99.90;;;;;;5157527;27;20048;-84
2023/12/23 12:45:03;;;;;;;0.82;0.40;;;5.90;99.90;;;;;;5140852;27;20125;-84
2023/12/23 12:47:29;;;;;;;0.40;0.40;;;5.90;99.90;;;;;;5157849;27;20077;-85